Time;durP1;ratioP1;P1;durP2;ratioP2;P2;SDS_P1;SDS_P2;PMS_P1;PMS_P2;Temp;Humidity;BMP_temperature;BMP_pressure;BME280_temperature;BME280_humidity;BME280_pressure;Samples;Min_cycle;Max_cycle;Signal;HPM_P1;HPM_P2
2022/08/07 00:00:45;;;;;;;;;5.75;4.25;;;;;-142.59;100.00;56100.38;4970361;28;49807;-75
2022/08/07 00:03:11;;;;;;;;;2.25;2.25;;;;;-142.59;100.00;56100.38;4970622;28;50384;-75
2022/08/07 00:05:36;;;;;;;;;3.50;3.50;;;;;-142.59;100.00;56100.38;4970633;28;49862;-75
2022/08/07 00:08:03;;;;;;;;;1.00;1.00;;;;;-142.59;100.00;56100.38;4970497;28;50579;-75
2022/08/07 00:10:29;;;;;;;;;4.00;4.00;;;;;-142.59;100.00;56100.38;4974116;28;49916;-72
2022/08/07 00:12:55;;;;;;;;;2.75;2.75;;;;;-142.59;100.00;56100.38;4976845;28;49862;-75
2022/08/07 00:15:20;;;;;;;;;4.00;4.00;;;;;-142.59;100.00;56100.38;4973622;28;49875;-75
2022/08/07 00:17:46;;;;;;;;;3.00;3.00;;;;;-142.59;100.00;56100.38;4973673;28;51369;-75
2022/08/07 00:20:11;;;;;;;;;3.00;3.00;;;;;-142.59;100.00;56100.38;4973838;28;50317;-75
2022/08/07 00:22:37;;;;;;;;;4.50;4.50;;;;;-142.59;100.00;56100.38;4973757;28;50124;-75
2022/08/07 00:25:07;;;;;;;;;3.25;3.25;;;;;-142.59;100.00;56100.38;4973603;28;49827;-75
2022/08/07 00:27:33;;;;;;;;;3.50;3.50;;;;;-142.59;100.00;56100.38;4967266;28;50962;-73
2022/08/07 00:29:58;;;;;;;;;5.50;4.00;;;;;-142.59;100.00;56100.38;4973550;28;49968;-70
2022/08/07 00:32:23;;;;;;;;;4.00;4.00;;;;;-142.59;100.00;56100.38;4977168;28;51768;-73
2022/08/07 00:34:49;;;;;;;;;4.00;4.00;;;;;-142.59;100.00;56100.38;4973770;28;49837;-73
2022/08/07 00:37:15;;;;;;;;;5.75;3.50;;;;;-142.59;100.00;56100.38;4973456;28;50702;-72
2022/08/07 00:39:41;;;;;;;;;3.75;3.75;;;;;-142.59;100.00;56100.38;4976066;28;49611;-70
2022/08/07 00:42:07;;;;;;;;;5.50;4.00;;;;;-142.59;100.00;56100.38;4973387;28;49568;-70
2022/08/07 00:44:33;;;;;;;;;5.75;5.50;;;;;-142.59;100.00;56100.38;4973337;28;50008;-70
2022/08/07 00:46:59;;;;;;;;;4.50;4.50;;;;;-142.59;100.00;56100.38;4975651;28;51099;-74
2022/08/07 00:49:24;;;;;;;;;4.00;3.00;;;;;-142.59;100.00;56100.38;4973115;28;49706;-73
2022/08/07 00:51:50;;;;;;;;;4.75;4.75;;;;;-142.59;100.00;56100.38;4973117;28;49576;-70
2022/08/07 00:54:15;;;;;;;;;2.00;2.00;;;;;-142.59;100.00;56100.38;4973322;28;50300;-74
2022/08/07 00:56:41;;;;;;;;;4.00;3.00;;;;;-142.59;100.00;56100.38;4973107;28;50268;-70
2022/08/07 00:59:06;;;;;;;;;7.25;4.25;;;;;-142.59;100.00;56100.38;4975844;28;49924;-70
2022/08/07 01:01:33;;;;;;;;;3.00;3.00;;;;;-142.59;100.00;56100.38;4975315;28;49833;-71
2022/08/07 01:03:59;;;;;;;;;4.00;4.00;;;;;-142.59;100.00;56100.38;4973324;28;49662;-74
2022/08/07 01:06:25;;;;;;;;;5.00;3.00;;;;;-142.59;100.00;56100.38;4978741;28;50533;-71
2022/08/07 01:08:50;;;;;;;;;3.00;3.00;;;;;-142.59;100.00;56100.38;4973092;28;49794;-70
2022/08/07 01:11:16;;;;;;;;;3.00;3.00;;;;;-142.59;100.00;56100.38;4976099;28;49865;-70
2022/08/07 01:13:42;;;;;;;;;2.50;2.50;;;;;-142.59;100.00;56100.38;4973676;28;49801;-74
2022/08/07 01:16:08;;;;;;;;;2.25;2.25;;;;;-142.59;100.00;56100.38;4975589;28;49729;-74
2022/08/07 01:18:35;;;;;;;;;4.25;4.00;;;;;-142.59;100.00;56100.38;4972856;28;49930;-74
2022/08/07 01:21:19;;;;;;;;;4.00;4.00;;;;;-142.59;100.00;56100.38;4969686;28;49867;-74
2022/08/07 01:23:46;;;;;;;;;2.00;2.00;;;;;-142.59;100.00;56100.38;4976115;28;49611;-73
2022/08/07 01:26:14;;;;;;;;;2.50;2.50;;;;;-142.59;100.00;56100.38;4975894;28;50022;-75
2022/08/07 01:28:47;;;;;;;;;6.25;4.25;;;;;-142.59;100.00;56100.38;4975987;28;50034;-74
2022/08/07 01:31:15;;;;;;;;;4.25;2.75;;;;;-142.59;100.00;56100.38;4973245;28;49618;-69
2022/08/07 01:33:41;;;;;;;;;3.75;2.50;;;;;-142.59;100.00;56100.38;4976809;28;49816;-72
2022/08/07 01:36:08;;;;;;;;;5.75;4.25;;;;;-142.59;100.00;56100.38;4972462;28;49720;-73
2022/08/07 01:38:34;;;;;;;;;3.75;3.25;;;;;-142.59;100.00;56100.38;4972624;28;50095;-74
2022/08/07 01:41:02;;;;;;;;;4.25;4.25;;;;;-142.59;100.00;56100.38;4980417;28;49753;-69
2022/08/07 01:43:29;;;;;;;;;5.25;3.75;;;;;-142.59;100.00;56100.38;4975411;28;49860;-74
2022/08/07 01:45:57;;;;;;;;;3.00;3.00;;;;;-142.59;100.00;56100.38;4972497;28;49754;-73
2022/08/07 01:48:23;;;;;;;;;4.00;4.00;;;;;-142.59;100.00;56100.38;4975273;28;49895;-69
2022/08/07 01:50:54;;;;;;;;;4.50;3.00;;;;;-142.59;100.00;56100.38;4975879;28;49715;-73
2022/08/07 01:53:22;;;;;;;;;3.00;3.00;;;;;-142.59;100.00;56100.38;4977267;28;49623;-73
2022/08/07 01:56:06;;;;;;;;;3.00;3.00;;;;;-142.59;100.00;56100.38;4957720;28;50354;-74
2022/08/07 01:58:36;;;;;;;;;2.75;2.75;;;;;-142.59;100.00;56100.38;4971934;28;50045;-72
2022/08/07 02:01:07;;;;;;;;;3.75;3.75;;;;;-142.59;100.00;56100.38;4975121;28;49798;-73
2022/08/07 02:03:34;;;;;;;;;3.00;3.00;;;;;-142.59;100.00;56100.38;4972548;28;49832;-73
2022/08/07 02:06:03;;;;;;;;;5.25;4.00;;;;;-142.59;100.00;56100.38;4976558;28;50361;-75
2022/08/07 02:08:36;;;;;;;;;4.00;4.00;;;;;-142.59;100.00;56100.38;4976961;28;49840;-73
2022/08/07 02:11:02;;;;;;;;;4.50;4.50;;;;;-142.59;100.00;56100.38;4976727;28;49789;-74
2022/08/07 02:13:31;;;;;;;;;6.25;5.25;;;;;-142.59;100.00;56100.38;4974165;28;49773;-74
2022/08/07 02:15:59;;;;;;;;;5.50;3.25;;;;;-142.59;100.00;56100.38;4972173;28;49756;-74
2022/08/07 02:18:27;;;;;;;;;4.50;4.50;;;;;-142.59;100.00;56100.38;4971325;28;49757;-74
2022/08/07 02:20:56;;;;;;;;;5.50;5.00;;;;;-142.59;100.00;56100.38;4972114;28;49619;-73
2022/08/07 02:23:24;;;;;;;;;3.75;3.75;;;;;-142.59;100.00;56100.38;4972402;28;49837;-72
2022/08/07 02:25:52;;;;;;;;;3.00;3.00;;;;;-142.59;100.00;56100.38;4971885;28;49795;-72
2022/08/07 02:28:19;;;;;;;;;4.50;4.50;;;;;-142.59;100.00;56100.38;4954169;28;50130;-71
2022/08/07 02:30:46;;;;;;;;;4.50;4.00;;;;;-142.59;100.00;56100.38;4971479;28;49903;-72
2022/08/07 02:33:14;;;;;;;;;5.00;5.00;;;;;-142.59;100.00;56100.38;4972158;28;49930;-73
2022/08/07 02:35:41;;;;;;;;;4.00;3.00;;;;;-142.59;100.00;56100.38;4971767;28;50812;-72
2022/08/07 02:38:09;;;;;;;;;5.00;4.25;;;;;-142.59;100.00;56100.38;4971895;28;49663;-71
2022/08/07 02:40:37;;;;;;;;;4.00;4.00;;;;;-142.59;100.00;56100.38;4971740;28;49991;-72
2022/08/07 02:43:04;;;;;;;;;4.00;4.00;;;;;-142.59;100.00;56100.38;4971993;28;50021;-71
2022/08/07 02:45:32;;;;;;;;;5.75;4.75;;;;;-142.59;100.00;56100.38;4971649;28;49834;-69
2022/08/07 02:47:57;;;;;;;;;3.25;3.00;;;;;-142.59;100.00;56100.38;4971617;28;49960;-70
2022/08/07 02:50:23;;;;;;;;;4.50;4.00;;;;;-142.59;100.00;56100.38;4971588;28;49626;-71
2022/08/07 02:53:10;;;;;;;;;4.00;4.00;;;;;-142.59;100.00;56100.38;4971990;28;49738;-71
2022/08/07 02:55:38;;;;;;;;;4.75;4.75;;;;;-142.59;100.00;56100.38;4965406;28;50549;-71
2022/08/07 02:58:09;;;;;;;;;4.00;4.00;;;;;-142.59;100.00;56100.38;4965360;28;49879;-69
2022/08/07 03:00:35;;;;;;;;;3.50;1.75;;;;;-142.59;100.00;56100.38;4971192;28;49853;-70
2022/08/07 03:03:04;;;;;;;;;5.25;4.00;;;;;-142.59;100.00;56100.38;4971503;28;49749;-71
2022/08/07 03:05:30;;;;;;;;;4.50;4.50;;;;;-142.59;100.00;56100.38;4971026;28;50926;-71
2022/08/07 03:07:56;;;;;;;;;3.75;3.00;;;;;-142.59;100.00;56100.38;4971309;28;49909;-72
2022/08/07 03:10:22;;;;;;;;;4.00;3.00;;;;;-142.59;100.00;56100.38;4965170;28;50166;-70
2022/08/07 03:12:49;;;;;;;;;4.00;4.00;;;;;-142.59;100.00;56100.38;4971459;28;49659;-71
2022/08/07 03:15:15;;;;;;;;;4.00;4.00;;;;;-142.59;100.00;56100.38;4971249;28;50552;-71
2022/08/07 03:17:41;;;;;;;;;3.00;3.00;;;;;-142.59;100.00;56100.38;4953607;28;49740;-71
2022/08/07 03:20:08;;;;;;;;;4.00;4.00;;;;;-142.59;100.00;56100.38;4970993;28;49699;-72
2022/08/07 03:22:34;;;;;;;;;3.00;3.00;;;;;-142.59;100.00;56100.38;4953626;28;49935;-72
2022/08/07 03:25:00;;;;;;;;;4.00;2.00;;;;;-142.59;100.00;56100.38;4970940;28;49844;-72
2022/08/07 03:27:27;;;;;;;;;5.00;4.00;;;;;-142.59;100.00;56100.38;4971153;28;49857;-70
2022/08/07 03:29:54;;;;;;;;;6.00;3.50;;;;;-142.59;100.00;56100.38;4970879;28;49782;-71
2022/08/07 03:32:32;;;;;;;;;3.50;3.50;;;;;-142.59;100.00;56100.38;4971321;28;49874;-72
2022/08/07 03:34:59;;;;;;;;;6.00;4.25;;;;;-142.59;100.00;56100.38;4970751;28;50891;-69
2022/08/07 03:37:29;;;;;;;;;2.25;2.25;;;;;-142.59;100.00;56100.38;4971004;28;49891;-73
2022/08/07 03:39:55;;;;;;;;;4.00;4.00;;;;;-142.59;100.00;56100.38;4970839;28;49928;-71
2022/08/07 03:42:21;;;;;;;;;3.00;2.00;;;;;-142.59;100.00;56100.38;4970431;28;50045;-71
2022/08/07 03:44:47;;;;;;;;;4.25;4.25;;;;;-142.59;100.00;56100.38;4969922;28;50491;-70
2022/08/07 03:47:14;;;;;;;;;2.50;2.50;;;;;-142.59;100.00;56100.38;4970747;28;49645;-72
2022/08/07 03:49:41;;;;;;;;;2.75;2.25;;;;;-142.59;100.00;56100.38;4970971;28;49921;-71
2022/08/07 03:52:08;;;;;;;;;3.75;3.00;;;;;-142.59;100.00;56100.38;4971173;28;49795;-71
2022/08/07 03:54:34;;;;;;;;;4.00;3.50;;;;;-142.59;100.00;56100.38;4970601;28;49797;-72
2022/08/07 03:57:01;;;;;;;;;4.00;3.00;;;;;-142.59;100.00;56100.38;4970552;28;49849;-72
2022/08/07 03:59:27;;;;;;;;;3.00;3.00;;;;;-142.59;100.00;56100.38;4969979;28;49852;-71
2022/08/07 04:01:55;;;;;;;;;3.00;3.00;;;;;-142.59;100.00;56100.38;4970940;28;49706;-72
2022/08/07 04:04:21;;;;;;;;;3.25;3.25;;;;;-142.59;100.00;56100.38;4969317;28;49774;-71
2022/08/07 04:06:46;;;;;;;;;3.00;3.00;;;;;-142.59;100.00;56100.38;4970593;28;49632;-72
2022/08/07 04:09:14;;;;;;;;;2.00;2.00;;;;;-142.59;100.00;56100.38;4970623;28;49855;-72
2022/08/07 04:11:40;;;;;;;;;4.00;4.00;;;;;-142.59;100.00;56100.38;4970301;28;49789;-73
2022/08/07 04:14:08;;;;;;;;;3.00;3.00;;;;;-142.59;100.00;56100.38;4970148;28;50344;-72
2022/08/07 04:16:34;;;;;;;;;4.00;2.00;;;;;-142.59;100.00;56100.38;4970356;28;49919;-73
2022/08/07 04:19:00;;;;;;;;;4.00;3.75;;;;;-142.59;100.00;56100.38;4969778;28;49877;-72
2022/08/07 04:21:26;;;;;;;;;4.00;2.00;;;;;-142.59;100.00;56100.38;4970856;28;49963;-73
2022/08/07 04:23:52;;;;;;;;;4.00;3.00;;;;;-142.59;100.00;56100.38;4970353;28;50310;-72
2022/08/07 04:26:17;;;;;;;;;2.25;2.25;;;;;-142.59;100.00;56100.38;4953109;28;49801;-72
2022/08/07 04:28:43;;;;;;;;;4.50;3.75;;;;;-142.59;100.00;56100.38;4970080;28;49933;-73
2022/08/07 04:31:09;;;;;;;;;6.50;5.25;;;;;-142.59;100.00;56100.38;4970162;28;49647;-73
2022/08/07 04:33:35;;;;;;;;;3.50;3.00;;;;;-142.59;100.00;56100.38;4952544;28;51290;-73
2022/08/07 04:36:02;;;;;;;;;3.00;3.00;;;;;-142.59;100.00;56100.38;4969938;28;49821;-73
2022/08/07 04:38:28;;;;;;;;;5.25;3.00;;;;;-142.59;100.00;56100.38;4970221;28;49690;-74
2022/08/07 04:40:53;;;;;;;;;3.75;3.75;;;;;-142.59;100.00;56100.38;4970483;28;49893;-74
2022/08/07 04:43:25;;;;;;;;;3.50;3.50;;;;;-142.59;100.00;56100.38;4969776;28;49911;-73
2022/08/07 04:46:09;;;;;;;;;4.00;3.25;;;;;-142.59;100.00;56100.38;4958764;28;49945;-73
2022/08/07 04:49:02;;;;;;;;;3.00;3.00;;;;;-142.59;100.00;56100.38;4970119;28;49940;-74
2022/08/07 04:51:39;;;;;;;;;2.00;2.00;;;;;-142.59;100.00;56100.38;4969858;28;50028;-74
2022/08/07 04:54:13;;;;;;;;;2.00;2.00;;;;;-142.59;100.00;56100.38;4970176;28;50524;-74
2022/08/07 04:56:54;;;;;;;;;4.25;3.75;;;;;-142.59;100.00;56100.38;4972122;28;49869;-74
2022/08/07 04:59:39;;;;;;;;;4.00;4.00;;;;;-142.59;100.00;56100.38;4972393;28;49823;-74
2022/08/07 05:02:16;;;;;;;;;2.50;1.50;;;;;-142.59;100.00;56100.38;4962922;28;50222;-72
2022/08/07 05:05:21;;;;;;;;;3.25;3.25;;;;;-142.59;100.00;56100.38;4973163;28;50573;-73
2022/08/07 05:07:57;;;;;;;;;2.00;2.00;;;;;-142.59;100.00;56100.38;4912369;28;49879;-73
2022/08/07 05:10:31;;;;;;;;;4.50;4.50;;;;;-142.59;100.00;56100.38;4961585;28;49820;-73
2022/08/07 05:13:02;;;;;;;;;6.25;5.00;;;;;-142.59;100.00;56100.38;4973101;28;49854;-73
2022/08/07 05:15:34;;;;;;;;;2.00;2.00;;;;;-142.59;100.00;56100.38;4973037;28;49908;-73
2022/08/07 05:18:19;;;;;;;;;2.75;2.50;;;;;-142.59;100.00;56100.38;4972649;28;49797;-73
2022/08/07 05:20:56;;;;;;;;;4.00;4.00;;;;;-142.59;100.00;56100.38;4972890;28;50064;-72
2022/08/07 05:23:38;;;;;;;;;3.75;3.00;;;;;-142.59;100.00;56100.38;4972718;28;50004;-73
2022/08/07 05:26:05;;;;;;;;;2.50;2.50;;;;;-142.59;100.00;56100.38;4972071;28;49797;-73
2022/08/07 05:28:34;;;;;;;;;3.00;3.00;;;;;-142.59;100.00;56100.38;4972694;28;49724;-74
2022/08/07 05:31:00;;;;;;;;;5.25;4.00;;;;;-142.59;100.00;56100.38;4966224;28;49848;-74
2022/08/07 05:33:28;;;;;;;;;0.50;0.50;;;;;-142.59;100.00;56100.38;4972992;28;49976;-73
2022/08/07 05:35:54;;;;;;;;;7.00;3.75;;;;;-142.59;100.00;56100.38;4972674;28;49773;-72
2022/08/07 05:38:21;;;;;;;;;5.25;4.00;;;;;-142.59;100.00;56100.38;4972744;28;49707;-72
2022/08/07 05:40:48;;;;;;;;;2.75;2.50;;;;;-142.59;100.00;56100.38;4972799;28;49963;-72
2022/08/07 05:43:15;;;;;;;;;3.75;3.00;;;;;-142.59;100.00;56100.38;4972632;28;49855;-72
2022/08/07 05:45:41;;;;;;;;;3.75;3.75;;;;;-142.59;100.00;56100.38;4972412;28;50643;-72
2022/08/07 05:48:07;;;;;;;;;2.00;2.00;;;;;-142.59;100.00;56100.38;4972532;28;49707;-73
2022/08/07 05:50:33;;;;;;;;;3.00;3.00;;;;;-142.59;100.00;56100.38;4971667;28;49871;-71
2022/08/07 05:53:02;;;;;;;;;3.00;3.00;;;;;-142.59;100.00;56100.38;4972972;28;49842;-74
2022/08/07 05:55:31;;;;;;;;;4.50;3.00;;;;;-142.59;100.00;56100.38;4972563;28;49870;-72
2022/08/07 05:57:59;;;;;;;;;1.75;1.50;;;;;-142.59;100.00;56100.38;4972012;28;49917;-73
2022/08/07 06:00:25;;;;;;;;;4.00;4.00;;;;;-142.59;100.00;56100.38;4971867;28;49820;-72
2022/08/07 06:02:52;;;;;;;;;3.50;2.25;;;;;-142.59;100.00;56100.38;4972243;28;49977;-73
2022/08/07 06:05:20;;;;;;;;;4.00;4.00;;;;;-142.59;100.00;56100.38;4971026;28;49971;-72
2022/08/07 06:07:46;;;;;;;;;3.00;1.00;;;;;-142.59;100.00;56100.38;4971130;28;49889;-74
2022/08/07 06:10:12;;;;;;;;;4.00;2.00;;;;;-142.59;100.00;56100.38;4971710;28;49885;-74
2022/08/07 06:12:38;;;;;;;;;3.25;3.00;;;;;-142.59;100.00;56100.38;4954684;28;49881;-73
2022/08/07 06:15:04;;;;;;;;;2.75;2.75;;;;;-142.59;100.00;56100.38;4972200;28;50664;-72
2022/08/07 06:17:30;;;;;;;;;2.75;2.75;;;;;-142.59;100.00;56100.38;4971866;28;49669;-72
2022/08/07 06:19:56;;;;;;;;;3.75;3.50;;;;;-142.59;100.00;56100.38;4972130;28;50203;-71
2022/08/07 06:22:24;;;;;;;;;3.00;3.00;;;;;-142.59;100.00;56100.38;4972121;28;49889;-73
2022/08/07 06:24:50;;;;;;;;;1.50;1.50;;;;;-142.59;100.00;56100.38;4971866;28;49779;-73
2022/08/07 06:27:22;;;;;;;;;2.25;2.25;;;;;-142.59;100.00;56100.38;4971775;28;49787;-74
2022/08/07 06:29:48;;;;;;;;;3.00;3.00;;;;;-142.59;100.00;56100.38;4971341;28;49599;-73
2022/08/07 06:32:13;;;;;;;;;5.75;3.50;;;;;-142.59;100.00;56100.38;4953797;28;49988;-73
2022/08/07 06:34:39;;;;;;;;;4.00;3.00;;;;;-142.59;100.00;56100.38;4971227;28;51067;-72
2022/08/07 06:37:04;;;;;;;;;4.00;2.00;;;;;-142.59;100.00;56100.38;4971639;28;49707;-72
2022/08/07 06:39:31;;;;;;;;;4.00;2.25;;;;;-142.59;100.00;56100.38;4971776;28;49857;-71
2022/08/07 06:42:03;;;;;;;;;4.00;3.25;;;;;-142.59;100.00;56100.38;4971615;28;49776;-72
2022/08/07 06:44:30;;;;;;;;;2.00;2.00;;;;;-142.59;100.00;56100.38;4970814;28;52262;-72
2022/08/07 06:46:55;;;;;;;;;2.25;2.25;;;;;-142.59;100.00;56100.38;4971741;28;49709;-71
2022/08/07 06:49:20;;;;;;;;;4.00;3.00;;;;;-142.59;100.00;56100.38;4970507;28;49851;-71
2022/08/07 06:51:46;;;;;;;;;2.00;2.00;;;;;-142.59;100.00;56100.38;4971708;28;49572;-71
2022/08/07 06:54:14;;;;;;;;;2.75;2.75;;;;;-142.59;100.00;56100.38;4970922;28;50898;-74
2022/08/07 06:56:42;;;;;;;;;2.00;2.00;;;;;-142.59;100.00;56100.38;4953742;28;49852;-70
2022/08/07 06:59:14;;;;;;;;;2.00;2.00;;;;;-142.59;100.00;56100.38;4970726;28;49983;-73
2022/08/07 07:01:41;;;;;;;;;3.00;3.00;;;;;-142.59;100.00;56100.38;4968345;28;49841;-72
2022/08/07 07:04:08;;;;;;;;;3.75;3.75;;;;;-142.59;100.00;56100.38;4971168;28;50093;-74
2022/08/07 07:06:33;;;;;;;;;3.00;2.75;;;;;-142.59;100.00;56100.38;4953300;28;49789;-72
2022/08/07 07:09:29;;;;;;;;;3.75;2.75;;;;;-142.59;100.00;56100.38;4970853;28;49915;-71
2022/08/07 07:12:06;;;;;;;;;2.50;2.50;;;;;-142.59;100.00;56100.38;4955401;28;49740;-72
2022/08/07 07:14:44;;;;;;;;;2.50;2.50;;;;;-142.59;100.00;56100.38;4971052;28;49877;-70
2022/08/07 07:17:25;;;;;;;;;1.50;1.50;;;;;-142.59;100.00;56100.38;4974346;28;49805;-73
2022/08/07 07:19:54;;;;;;;;;3.00;3.00;;;;;-142.59;100.00;56100.38;4973184;28;49814;-73
2022/08/07 07:22:21;;;;;;;;;1.50;1.50;;;;;-142.59;100.00;56100.38;4971339;28;49686;-73
2022/08/07 07:24:48;;;;;;;;;1.50;1.50;;;;;-142.59;100.00;56100.38;4972378;28;49997;-73
2022/08/07 07:27:19;;;;;;;;;2.00;2.00;;;;;-142.59;100.00;56100.38;4973410;28;49706;-72
2022/08/07 07:29:50;;;;;;;;;3.25;3.25;;;;;-142.59;100.00;56100.38;4975160;28;49678;-73
2022/08/07 07:32:16;;;;;;;;;2.00;1.25;;;;;-142.59;100.00;56100.38;4975768;28;50059;-73
2022/08/07 07:34:46;;;;;;;;;3.25;3.00;;;;;-142.59;100.00;56100.38;4971056;28;50439;-72
2022/08/07 07:37:13;;;;;;;;;4.75;4.25;;;;;-142.59;100.00;56100.38;4971201;28;49720;-71
2022/08/07 07:39:40;;;;;;;;;4.00;2.25;;;;;-142.59;100.00;56100.38;4970770;28;49646;-74
2022/08/07 07:42:08;;;;;;;;;2.00;2.00;;;;;-142.59;100.00;56100.38;4954067;28;49930;-73
2022/08/07 07:44:38;;;;;;;;;1.25;1.25;;;;;-142.59;100.00;56100.38;4970912;28;49772;-74
2022/08/07 07:47:06;;;;;;;;;2.00;1.50;;;;;-142.59;100.00;56100.38;4971083;28;49707;-74
2022/08/07 07:49:33;;;;;;;;;2.00;2.00;;;;;-142.59;100.00;56100.38;4974048;28;49661;-73
2022/08/07 07:52:01;;;;;;;;;2.00;2.00;;;;;-142.59;100.00;56100.38;4953164;28;50452;-80
2022/08/07 07:54:28;;;;;;;;;3.00;3.00;;;;;-142.59;100.00;56100.38;4973592;28;49737;-73
2022/08/07 07:56:56;;;;;;;;;2.25;2.25;;;;;-142.59;100.00;56100.38;4971220;28;49855;-75
2022/08/07 07:59:23;;;;;;;;;1.25;1.25;;;;;-142.59;100.00;56100.38;4970375;28;49862;-78
2022/08/07 08:01:50;;;;;;;;;2.25;2.25;;;;;-142.59;100.00;56100.38;4970461;28;49713;-74
2022/08/07 08:04:17;;;;;;;;;3.00;3.00;;;;;-142.59;100.00;56100.38;4969307;28;49912;-75
2022/08/07 08:06:45;;;;;;;;;3.50;3.50;;;;;-142.59;100.00;56100.38;4952873;28;49889;-75
2022/08/07 08:09:13;;;;;;;;;3.25;3.00;;;;;-142.59;100.00;56100.38;4952925;28;49710;-76
2022/08/07 08:11:40;;;;;;;;;1.75;1.75;;;;;-142.59;100.00;56100.38;4952836;28;50061;-76
2022/08/07 08:14:05;;;;;;;;;4.50;4.50;;;;;-142.59;100.00;56100.38;4969887;28;50455;-76
2022/08/07 08:16:38;;;;;;;;;1.75;1.75;;;;;-142.59;100.00;56100.38;4952996;28;49856;-77
2022/08/07 08:19:07;;;;;;;;;2.00;2.00;;;;;-142.59;100.00;56100.38;4953213;28;50027;-80
2022/08/07 08:27:08;;;;;;;;;4.75;3.25;;;;;-142.59;100.00;56100.38;4965337;28;49695;-80
2022/08/07 08:29:43;;;;;;;;;1.75;1.75;;;;;-142.59;100.00;56100.38;4970802;28;49917;-70
2022/08/07 08:32:11;;;;;;;;;3.00;3.00;;;;;-142.59;100.00;56100.38;4972370;28;49733;-69
2022/08/07 08:34:39;;;;;;;;;3.00;2.00;;;;;-142.59;100.00;56100.38;4973505;28;50678;-74
2022/08/07 08:37:08;;;;;;;;;3.00;3.00;;;;;-142.59;100.00;56100.38;4974110;28;49989;-83
2022/08/07 08:39:34;;;;;;;;;1.50;1.25;;;;;-142.59;100.00;56100.38;4973960;28;49819;-76
2022/08/07 08:42:04;;;;;;;;;1.50;1.50;;;;;-142.59;100.00;56100.38;4974138;28;50080;-74
2022/08/07 08:44:47;;;;;;;;;2.25;2.00;;;;;-142.59;100.00;56100.38;4974352;28;49904;-80
2022/08/07 08:47:37;;;;;;;;;2.50;1.50;;;;;-142.59;100.00;56100.38;4974386;28;49821;-75
2022/08/07 08:50:26;;;;;;;;;1.25;1.25;;;;;-142.59;100.00;56100.38;4954994;28;49975;-80
2022/08/07 08:53:13;;;;;;;;;2.50;2.25;;;;;-142.59;100.00;56100.38;4974875;28;49815;-80
2022/08/07 08:55:46;;;;;;;;;3.75;3.00;;;;;-142.59;100.00;56100.38;4975082;28;49626;-74
2022/08/07 08:58:25;;;;;;;;;0.00;0.00;;;;;-142.59;100.00;56100.38;4955562;28;49826;-73
2022/08/07 09:00:57;;;;;;;;;2.75;2.75;;;;;-142.59;100.00;56100.38;4955058;28;49975;-70
2022/08/07 09:03:32;;;;;;;;;2.25;2.00;;;;;-142.59;100.00;56100.38;4955788;28;49873;-68
2022/08/07 09:06:05;;;;;;;;;2.50;2.50;;;;;-142.59;100.00;56100.38;4955148;28;51319;-72
2022/08/07 09:09:09;;;;;;;;;2.50;1.50;;;;;-142.59;100.00;56100.38;4973220;28;49635;-68
2022/08/07 09:11:44;;;;;;;;;0.75;0.75;;;;;-142.59;100.00;56100.38;4934749;28;49906;-67
2022/08/07 09:14:19;;;;;;;;;1.50;1.50;;;;;-142.59;100.00;56100.38;4973952;28;49432;-69
2022/08/07 09:17:09;;;;;;;;;3.25;3.00;;;;;-142.59;100.00;56100.38;4976608;28;49985;-76
2022/08/07 09:19:59;;;;;;;;;24.00;24.00;;;;;-142.59;100.00;56100.38;4977008;28;49640;-73
2022/08/07 09:22:39;;;;;;;;;39.50;34.75;;;;;-142.59;100.00;56100.38;4971336;28;49800;-74
2022/08/07 09:26:04;;;;;;;;;41.50;34.75;;;;;21.45;38.85;102159.19;5081187;27;50143;-80
2022/08/07 09:28:40;;;;;;;;;20.25;17.75;;;;;21.68;39.11;102189.44;5095198;27;49957;-63
2022/08/07 09:31:39;;;;;;;;;49.25;40.50;;;;;21.75;39.45;102179.63;5083319;28;49211;-71
2022/08/07 09:34:16;;;;;;;;;44.50;38.25;;;;;21.78;39.13;102184.94;5082203;28;50284;-62
2022/08/07 09:36:58;;;;;;;;;6.75;6.75;;;;;21.86;38.93;102176.91;5080214;28;49396;-61
2022/08/07 09:39:36;;;;;;;;;3.75;3.75;;;;;21.90;38.04;102179.53;5071719;28;49398;-64
2022/08/07 09:42:27;;;;;;;;;4.50;4.50;;;;;21.97;36.75;102183.97;5056006;28;49746;-61
2022/08/07 09:45:08;;;;;;;;;2.75;2.75;;;;;22.00;37.03;102162.59;5058069;27;51117;-63
2022/08/07 09:48:05;;;;;;;;;2.50;2.50;;;;;22.10;37.34;102183.97;5064785;27;49763;-60
2022/08/07 09:51:13;;;;;;;;;3.00;3.00;;;;;22.13;37.26;102176.84;5053253;27;49960;-67
2022/08/07 09:53:43;;;;;;;;;4.00;4.00;;;;;22.17;37.25;102165.22;5065222;27;49866;-68
2022/08/07 09:56:56;;;;;;;;;3.50;3.50;;;;;22.20;37.00;102167.88;5054611;28;49950;-65
2022/08/07 09:59:24;;;;;;;;;4.00;4.00;;;;;22.30;36.94;102170.53;5058133;28;49877;-65
2022/08/07 10:02:10;;;;;;;;;2.00;2.00;;;;;22.32;36.68;102166.94;5045533;28;49632;-61
2022/08/07 10:05:25;;;;;;;;;1.50;1.25;;;;;22.37;36.85;102162.44;5056196;27;50138;-64
2022/08/07 10:08:24;;;;;;;;;4.00;4.00;;;;;22.40;36.35;102164.22;5031864;28;50740;-70
2022/08/07 10:11:00;;;;;;;;;5.00;4.50;;;;;22.43;36.18;102157.06;5063150;27;49833;-64
2022/08/07 10:13:51;;;;;;;;;1.75;1.75;;;;;22.35;36.39;102132.13;5049118;27;50155;-63
2022/08/07 10:16:22;;;;;;;;;1.75;1.75;;;;;22.54;36.19;102163.22;5048396;28;49798;-61
2022/08/07 10:19:07;;;;;;;;;3.75;3.75;;;;;22.50;36.09;102132.03;5060786;27;49923;-66
2022/08/07 10:21:42;;;;;;;;;4.75;4.00;;;;;22.69;36.00;102146.19;5068295;27;49724;-66
2022/08/07 10:24:29;;;;;;;;;4.00;4.00;;;;;22.74;35.36;102152.38;5082821;27;49954;-69
2022/08/07 10:27:21;;;;;;;;;3.00;3.00;;;;;22.59;35.67;102117.72;5096641;27;49419;-63
2022/08/07 10:30:08;;;;;;;;;6.00;4.00;;;;;22.79;34.82;102139.84;5082313;27;49924;-64
2022/08/07 10:33:10;;;;;;;;;3.00;3.00;;;;;22.88;35.18;102141.59;5085764;27;49802;-70
2022/08/07 10:36:11;;;;;;;;;2.50;2.50;;;;;22.93;34.15;102126.38;5072780;27;50367;-61
2022/08/07 10:38:50;;;;;;;;;3.00;3.00;;;;;22.99;32.96;102133.47;4986703;28;49890;-61
2022/08/07 10:41:35;;;;;;;;;2.50;2.50;;;;;23.05;33.26;102141.44;5062518;28;49958;-62
2022/08/07 10:44:26;;;;;;;;;3.50;3.50;;;;;23.11;33.23;102126.22;5058756;28;49713;-66
2022/08/07 10:47:43;;;;;;;;;4.00;4.00;;;;;23.10;33.56;102118.19;5072856;27;50097;-63
2022/08/07 10:50:13;;;;;;;;;3.00;3.00;;;;;23.17;33.78;102119.91;4990390;28;49747;-68
2022/08/07 10:53:00;;;;;;;;;5.25;3.25;;;;;23.23;32.73;102127.88;4989797;28;51399;-66
2022/08/07 10:55:34;;;;;;;;;4.00;4.00;;;;;23.01;32.75;102083.47;5049973;28;49743;-70
2022/08/07 10:58:14;;;;;;;;;2.00;1.75;;;;;23.28;32.70;102118.00;5075537;27;49773;-68
2022/08/07 11:01:30;;;;;;;;;4.00;4.00;;;;;23.41;33.43;102108.03;5058454;28;49835;-61
2022/08/07 11:04:08;;;;;;;;;3.75;2.00;;;;;23.50;33.50;102107.06;5067377;27;50518;-62
2022/08/07 11:07:00;;;;;;;;;4.00;3.75;;;;;23.29;33.41;102057.28;5054189;28;49595;-66
2022/08/07 11:09:37;;;;;;;;;3.50;3.50;;;;;23.32;33.45;102051.88;5072129;28;49764;-65
2022/08/07 11:12:11;;;;;;;;;2.50;2.50;;;;;23.68;32.67;102097.03;5072471;27;49920;-71
2022/08/07 11:14:46;;;;;;;;;2.75;2.75;;;;;23.65;32.28;102094.41;5053930;28;51556;-66
2022/08/07 11:17:21;;;;;;;;;4.25;4.25;;;;;23.72;31.72;102097.88;5072096;28;49766;-64
2022/08/07 11:20:07;;;;;;;;;3.25;3.25;;;;;23.54;32.42;102069.47;5072103;27;49597;-70
2022/08/07 11:22:55;;;;;;;;;3.00;3.00;;;;;23.74;32.41;102061.22;5072301;27;49877;-70
2022/08/07 11:25:38;;;;;;;;;4.00;4.00;;;;;23.93;32.31;102070.78;5071575;27;49792;-68
2022/08/07 11:28:15;;;;;;;;;4.50;4.50;;;;;24.06;32.06;102079.56;5071649;27;49803;-65
2022/08/07 11:31:20;;;;;;;;;3.50;3.50;;;;;24.05;31.38;102075.09;5071845;27;49778;-65
2022/08/07 11:34:16;;;;;;;;;3.00;3.00;;;;;23.81;31.68;102025.34;5072399;27;49691;-68
2022/08/07 11:37:05;;;;;;;;;7.50;5.25;;;;;23.88;31.70;102043.13;5072647;28;50981;-65
2022/08/07 11:39:33;;;;;;;;;5.75;4.75;;;;;24.10;31.45;102062.47;5071736;28;49707;-69
2022/08/07 11:42:13;;;;;;;;;3.25;3.25;;;;;24.12;31.05;102067.81;5071784;28;49766;-72